Sluck, Belarus

5:19 PM MSK on March 30, 2015 (GMT +0300)
Minsk-2 | | Change Station
CLOSE
Current Station
Airport
Location: Minsk In-Min,
Elevation: 669 ft
Nearby Weather Stations

Elev 669 ft 53.88 °N, 28.03 °E | Updated 19 minutes ago

Light Rain Showers
Light Showers Rain Mist
39 °F
Feels Like 31 °F
N
16
Wind Variable Wind from SSE
Gusts 22 mph

Today
High -- | Low -- °F
--% Chance of Precip.
Yesterday
High -- | Low -- °F
Precip. -- in
6:49 AM 7:40 PM
Waxing Gibbous, 80% visible
Pressure 29.30 in
Visibility 3.1 miles
Clouds Overcast 500 ft
Windchill 31 °F
Dew Point 39 °F
Humidity 100%
Rainfall 0.00 in
Snow Depth Not available.
UV 1 out of 12
Pollen Not available.
Air Quality Not available.
Flu Activity Not available.
METAR UMMS 301400Z 15007G10MPS 5000 -SHRA BR OVC005CB 04/04 Q0992 R13/290060 TEMPO 1200 RMK QBB150

More Conditions Fewer Conditions

Pressure 29.30 in
Visibility 3.1 miles
Clouds Overcast 500 ft
Windchill 31 °F
Dew Point 39 °F
Humidity 100%
Rainfall 0.00 in
Snow Depth Not available.
UV 1 out of 12
Pollen Not available.
Air Quality Not available.
Flu Activity Not available.
METAR UMMS 301400Z 15007G10MPS 5000 -SHRA BR OVC005CB 04/04 Q0992 R13/290060 TEMPO 1200 RMK QBB150

More Conditions Fewer Conditions

10-Day Weather Forecast

Almanac

Astronomy

Mar. 30, 2015 Rise Set
Actual Time
Civil Twilight
Nautical Twilight
Astronomical Twilight
Moon
Length of Visible Light
Length of Day
Tomorrow will be .
, % of the Moon is Illuminated

Today's Extremes

Country Highs Country Lows

Community

WunderPhotos

Upload Photos

1,809,502 photos uploaded!

WunderBlogs® & News

Nearby

Air Quality

  Air Quality AQ Index Pollutant
Not available.

Snow Depth

Station Depth Elevation

Earthquake Activity

City Distance Mag. Time & Date
Minimum magnitude displayed is 2.5.

Coastal Water Temperatures

Place Temperature

Stations

Nearby Weather Stations

Station Location Temp. Windchill Dew Point Humidity Wind Precip. Elev Updated Type